Time;durP1;ratioP1;P1;durP2;ratioP2;P2;SDS_P1;SDS_P2;PMS_P1;PMS_P2;Temp;Humidity;BMP_temperature;BMP_pressure;BME280_temperature;BME280_humidity;BME280_pressure;Samples;Min_cycle;Max_cycle;Signal;HPM_P1;HPM_P2
2023/06/19 00:03:38;;;;;;;;;;;22.40;53.80;;;21.54;49.22;99092.38;10244527;28;976;-68
2023/06/19 00:08:34;;;;;;;;;;;22.40;53.70;;;21.54;49.08;99088.88;10244811;28;841;-68
2023/06/19 00:13:29;;;;;;;;;;;22.40;53.70;;;21.55;49.02;99091.41;10245224;28;1906;-68
2023/06/19 00:18:25;;;;;;;;;;;;;;;21.55;49.20;99079.97;10244884;28;785;-68
2023/06/19 00:23:21;;;;;;;;;;;;;;;21.56;49.01;99082.53;10243924;28;833;-68
2023/06/19 00:28:19;;;;;;;;;;;;;;;21.55;49.12;99091.41;10244997;28;782;-68
2023/06/19 00:33:15;;;;;;;;;;;;;;;21.55;49.21;99069.34;10244695;28;1973;-68
2023/06/19 00:38:12;;;;;;;;;;;;;;;21.55;49.23;99070.19;10243546;28;852;-68
2023/06/19 00:43:07;;;;;;;;;;;;;;;21.55;49.10;99072.84;10244065;28;845;-68
2023/06/19 00:48:06;;;;;;;;;;;;;;;21.56;49.04;99086.94;10244462;28;778;-68
2023/06/19 00:53:03;;;;;;;;;;;;;;;21.56;49.10;99082.53;10252093;28;1965;-68
2023/06/19 00:57:59;;;;;;;;;;;;;;;21.55;49.17;99083.47;10252602;28;818;-68
2023/06/19 01:02:55;;;;;;;;;;;;;;;21.56;49.08;99079.00;10252433;28;865;-68
2023/06/19 01:07:50;;;;;;;;;;;;;;;21.55;49.16;99086.13;10252437;28;858;-68
2023/06/19 01:12:50;;;;;;;;;;;;;;;21.56;49.06;99077.22;10251449;28;1874;-68
2023/06/19 01:17:47;;;;;;;;;;;;;;;21.55;49.04;99080.81;10251247;28;857;-68
2023/06/19 01:22:43;;;;;;;;;;;;;;;21.55;49.02;99072.84;10251667;28;987;-68
2023/06/19 01:27:39;;;;;;;;;;;;;;;21.56;49.00;99074.56;10250848;28;878;-68
2023/06/19 01:32:35;;;;;;;;;;;;;;;21.56;49.19;99069.25;10250729;28;1976;-68
2023/06/19 01:37:33;;;;;;;;;;;;;;;21.56;49.21;99068.38;10251193;28;818;-68
2023/06/19 01:42:29;;;;;;;;;;;;;;;21.56;49.04;99071.91;10250280;28;814;-68
2023/06/19 01:47:24;;;;;;;;;;;;;;;21.56;49.19;99082.53;10250436;28;893;-68
2023/06/19 01:52:20;;;;;;;;;;;;;;;21.56;49.01;99081.66;10249957;28;1931;-68
2023/06/19 01:57:16;;;;;;;;;;;;;;;21.55;49.20;99075.50;10249743;28;879;-68
2023/06/19 02:02:12;;;;;;;;;;;;;;;21.55;49.16;99075.50;10248297;28;792;-68
2023/06/19 02:07:08;;;;;;;;;;;;;;;21.57;49.13;99073.59;10249481;28;782;-68
2023/06/19 02:12:04;;;;;;;;;;;;;;;21.56;49.17;99068.38;10249220;28;1965;-68
2023/06/19 02:17:00;;;;;;;;;;;;;;;21.56;49.20;99068.38;10249680;28;868;-68
2023/06/19 02:21:56;;;;;;;;;;;;;;;21.55;49.05;99069.34;10248921;28;754;-68
2023/06/19 02:26:51;;;;;;;;;;;;;;;21.55;49.16;99070.19;10249439;28;809;-68
2023/06/19 02:31:47;;;;;;;;;;;;;;;21.55;49.10;99064.91;10249053;28;1977;-68
2023/06/19 02:36:45;;;;;;;;;;;;;;;21.55;49.15;99070.19;10248942;28;829;-68
2023/06/19 02:41:45;;;;;;;;;;;;;;;21.55;49.20;99075.50;10248371;28;877;-68
2023/06/19 02:46:41;;;;;;;;;;;;;;;21.54;49.05;99076.47;10247899;28;835;-68
2023/06/19 02:51:37;;;;;;;;;;;;;;;21.55;49.02;99082.63;10247769;28;814;-68
2023/06/19 02:56:33;;;;;;;;;;;;;;;21.54;49.20;99089.72;10247616;28;771;-68
2023/06/19 03:01:29;;;;;;;;;;;;;;;21.55;49.10;99091.41;10247332;28;887;-68
2023/06/19 03:06:25;;;;;;;;;;;;;;;21.56;49.11;99109.03;10247165;28;801;-68
2023/06/19 03:11:21;;;;;;;;;;;;;;;21.56;49.10;99117.00;10246324;28;957;-68
2023/06/19 03:16:17;;;;;;;;;;;;;;;21.55;48.99;99131.19;10245654;28;1890;-68
2023/06/19 03:21:13;;;;;;;;;;;22.50;53.10;;;21.56;48.97;99138.22;10246579;28;879;-68
2023/06/19 03:26:08;;;;;;;;;;;22.50;53.60;;;21.56;49.15;99134.69;10246983;28;833;-68
2023/06/19 03:31:03;;;;;;;;;;;22.50;53.60;;;21.57;49.02;99141.72;10246029;28;1048;-68
2023/06/19 03:35:59;;;;;;;;;;;22.50;53.60;;;21.57;49.04;99150.50;10246843;28;1977;-68
2023/06/19 03:40:54;;;;;;;;;;;22.50;53.60;;;21.57;49.10;99161.13;10245824;28;1211;-68
2023/06/19 03:45:50;;;;;;;;;;;22.50;53.60;;;21.56;48.87;99169.16;10246262;28;795;-68
2023/06/19 03:50:45;;;;;;;;;;;22.50;53.60;;;21.57;49.00;99169.06;10245476;28;974;-68
2023/06/19 03:55:40;;;;;;;;;;;22.50;53.60;;;21.57;48.94;99174.38;10245252;28;1910;-68
2023/06/19 04:00:36;;;;;;;;;;;22.40;53.50;;;21.56;48.95;99172.69;10245813;28;868;-68
2023/06/19 04:05:31;;;;;;;;;;;22.50;53.60;;;21.52;49.10;99171.19;10245059;28;776;-65
2023/06/19 04:10:27;;;;;;;;;;;22.40;53.60;;;21.51;49.59;99173.94;10245453;28;880;-65
2023/06/19 04:15:22;;;;;;;;;;;22.40;53.90;;;21.51;49.47;99179.22;10244653;28;1902;-66
2023/06/19 04:20:17;;;;;;;;;;;22.40;53.90;;;21.51;49.45;99195.13;10244517;28;924;-65
2023/06/19 04:25:13;;;;;;;;;;;22.40;53.90;;;21.50;49.47;99204.91;10243542;28;897;-65
2023/06/19 04:30:08;;;;;;;;;;;22.40;54.00;;;21.50;49.65;99210.22;10244867;28;930;-66
2023/06/19 04:35:04;;;;;;;;;;;22.40;54.00;;;21.49;50.33;99202.38;10245080;28;1918;-65
2023/06/19 04:40:00;;;;;;;;;;;22.40;54.80;;;21.51;50.60;99213.69;10244293;28;1123;-66
2023/06/19 04:44:58;;;;;;;;;;;22.40;55.60;;;21.51;50.78;99227.84;10244021;28;949;-69
2023/06/19 04:49:54;;;;;;;;;;;22.40;55.60;;;21.54;50.63;99238.22;10244440;28;936;-68
2023/06/19 04:54:49;;;;;;;;;;;22.40;55.10;;;21.55;50.48;99234.63;10226046;28;1973;-66
2023/06/19 04:59:45;;;;;;;;;;;22.40;54.80;;;21.55;50.46;99255.00;10243720;28;861;-71
2023/06/19 05:04:42;;;;;;;;;;;22.40;54.80;;;21.54;50.42;99256.78;10243829;28;762;-66
2023/06/19 05:09:38;;;;;;;;;;;22.40;54.60;;;21.52;51.52;99260.50;10243495;28;982;-64
2023/06/19 05:14:33;;;;;;;;;;;22.40;55.30;;;21.51;51.39;99272.03;10242735;28;1967;-65
2023/06/19 05:19:28;;;;;;;;;;;22.40;55.90;;;21.54;51.25;99259.44;10243289;28;837;-65
2023/06/19 05:24:24;;;;;;;;;;;22.40;55.90;;;21.55;51.50;99270.91;10244876;28;836;-65
2023/06/19 05:29:19;;;;;;;;;;;22.40;55.90;;;21.55;51.42;99279.69;10243147;28;849;-67
2023/06/19 05:34:15;;;;;;;;;;;22.40;55.90;;;21.56;51.42;99275.25;10242605;28;1918;-65
2023/06/19 05:39:10;;;;;;;;;;;22.40;55.90;;;21.56;51.48;99273.47;10250091;28;782;-65
2023/06/19 05:44:06;;;;;;;;;;;22.40;55.90;;;21.56;51.69;99277.88;10250364;28;811;-65
2023/06/19 05:49:01;;;;;;;;;;;22.40;55.90;;;21.57;51.50;99293.72;10247805;28;1086;-65
2023/06/19 05:54:01;;;;;;;;;;;22.40;55.90;;;21.57;51.52;99296.38;10249657;28;1906;-66
2023/06/19 05:58:56;;;;;;;;;;;22.40;55.90;;;21.58;51.54;99303.34;10249945;28;825;-65
2023/06/19 06:03:53;;;;;;;;;;;22.40;55.90;;;21.60;51.46;99313.88;10250012;28;985;-65
2023/06/19 06:08:49;;;;;;;;;;;22.40;55.90;;;21.61;51.49;99321.75;10249361;28;883;-66
2023/06/19 06:13:44;;;;;;;;;;;22.50;55.60;;;21.63;51.22;99318.97;10249241;28;1906;-66
2023/06/19 06:18:40;;;;;;;;;;;22.50;55.50;;;21.63;51.27;99335.72;10248919;28;833;-67
2023/06/19 06:23:35;;;;;;;;;;;22.50;55.40;;;21.63;51.24;99343.69;10248968;28;867;-66
2023/06/19 06:28:31;;;;;;;;;;;22.50;55.40;;;21.65;51.10;99343.59;10248954;28;873;-66
2023/06/19 06:33:26;;;;;;;;;;;22.50;55.30;;;21.63;51.20;99353.44;10248021;28;1914;-65
2023/06/19 06:38:22;;;;;;;;;;;22.50;55.30;;;21.64;51.13;99350.72;10248263;28;779;-66
2023/06/19 06:43:17;;;;;;;;;;;22.50;55.40;;;21.65;51.40;99348.91;10231236;28;971;-66
2023/06/19 06:48:13;;;;;;;;;;;22.50;55.40;;;21.65;51.32;99355.06;10247746;28;821;-66
2023/06/19 06:53:08;;;;;;;;;;;22.50;55.50;;;21.65;51.66;99359.50;10247688;28;1906;-66
2023/06/19 06:58:05;;;;;;;;;;;22.50;55.70;;;21.67;52.48;99354.97;10246919;28;920;-66
2023/06/19 07:03:00;;;;;;;;;;;22.50;56.50;;;21.67;52.32;99357.63;10247289;28;994;-66
2023/06/19 07:07:55;;;;;;;;;;;22.50;56.50;;;21.70;52.08;99353.91;10247686;28;897;-65
2023/06/19 07:12:51;;;;;;;;;;;22.50;56.10;;;21.72;51.88;99358.16;10246886;28;1977;-68
2023/06/19 07:17:46;;;;;;;;;;;22.50;56.00;;;21.74;51.81;99355.41;10245850;28;935;-70
2023/06/19 07:22:42;;;;;;;;;;;22.50;55.70;;;21.75;51.58;99362.44;10247087;28;810;-70
2023/06/19 07:27:37;;;;;;;;;;;22.50;55.60;;;21.76;51.54;99367.59;10245520;28;865;-70
2023/06/19 07:32:32;;;;;;;;;;;22.60;55.60;;;21.75;51.49;99376.53;10245489;28;1921;-70
2023/06/19 07:37:28;;;;;;;;;;;22.50;55.50;;;21.75;51.47;99371.22;10245910;28;774;-70
2023/06/19 07:42:23;;;;;;;;;;;22.60;55.50;;;21.78;51.29;99370.19;10245757;28;874;-70
2023/06/19 07:47:20;;;;;;;;;;;22.60;55.50;;;21.77;51.32;99373.75;10245648;28;999;-70
2023/06/19 07:52:15;;;;;;;;;;;22.50;55.40;;;21.76;51.38;99378.22;10245333;28;1918;-70
2023/06/19 07:57:11;;;;;;;;;;;22.60;55.50;;;21.77;51.32;99387.91;10244692;28;945;-70
2023/06/19 08:02:06;;;;;;;;;;;22.60;55.40;;;21.80;51.16;99387.69;10244733;28;951;-70
2023/06/19 08:07:01;;;;;;;;;;;22.60;55.40;;;21.78;51.26;99381.63;10245560;28;835;-70
2023/06/19 08:11:57;;;;;;;;;;;22.60;55.40;;;21.80;51.20;99392.16;10245389;28;1985;-70
2023/06/19 08:16:52;;;;;;;;;;;22.60;55.40;;;21.81;51.05;99389.38;10244657;28;879;-70
2023/06/19 08:21:48;;;;;;;;;;;22.60;55.40;;;21.77;51.08;99387.91;10243964;28;905;-70
2023/06/19 08:26:43;;;;;;;;;;;22.50;55.30;;;21.78;50.98;99394.91;10244489;28;936;-70
2023/06/19 08:31:39;;;;;;;;;;;22.60;55.40;;;21.79;50.95;99390.44;10243771;28;1219;-70
2023/06/19 08:36:34;;;;;;;;;;;22.60;56.00;;;21.79;51.03;99398.41;10244253;28;1961;-70
2023/06/19 08:41:30;;;;;;;;;;;22.60;55.40;;;21.79;51.10;99401.91;10244024;28;860;-69
2023/06/19 08:46:25;;;;;;;;;;;22.60;55.40;;;21.76;51.22;99394.13;10243994;28;841;-65
2023/06/19 08:51:20;;;;;;;;;;;22.60;55.60;;;21.73;51.55;99401.47;10244536;28;795;-65
2023/06/19 08:56:16;;;;;;;;;;;22.50;56.20;;;21.72;51.74;99413.88;10243161;28;1906;-66
2023/06/19 09:01:13;;;;;;;;;;;22.60;56.40;;;21.73;51.84;99409.41;10243623;28;1022;-69
2023/06/19 09:06:08;;;;;;;;;;;22.60;56.30;;;21.77;51.84;99419.75;10243281;28;836;-70
2023/06/19 09:11:04;;;;;;;;;;;22.60;55.90;;;21.81;51.61;99423.88;10246506;28;866;-71
2023/06/19 09:15:59;;;;;;;;;;;22.60;55.80;;;21.85;51.32;99416.56;10251681;28;1966;-70
2023/06/19 09:20:55;;;;;;;;;;;22.60;55.70;;;21.87;51.02;99425.28;10251055;28;940;-71
2023/06/19 09:25:50;;;;;;;;;;;22.60;55.70;;;21.88;51.17;99411.06;10251067;28;857;-70
2023/06/19 09:30:56;;;;;;;;;;;22.60;55.70;;;21.91;50.79;99407.38;10250748;28;775;-71
2023/06/19 09:35:51;;;;;;;;;;;22.60;55.60;;;21.92;51.01;99415.22;10170537;28;1894;-71
2023/06/19 09:40:46;;;;;;;;;;;22.60;55.60;;;21.92;50.89;99417.00;10170313;28;902;-71
2023/06/19 09:45:42;;;;;;;;;;;22.60;55.60;;;21.90;50.94;99417.09;10170090;28;943;-71
2023/06/19 09:50:38;;;;;;;;;;;22.60;55.50;;;21.88;50.74;99438.44;10170230;28;768;-71
2023/06/19 09:55:33;;;;;;;;;;;22.60;55.50;;;21.90;50.92;99438.34;10169406;28;1907;-71
2023/06/19 10:00:31;;;;;;;;;;;22.60;55.50;;;21.96;50.57;99434.44;10169064;28;1298;-74
2023/06/19 10:05:26;;;;;;;;;;;22.60;55.50;;;21.92;50.81;99433.78;10169495;28;887;-74
2023/06/19 10:10:21;;;;;;;;;;;22.60;55.50;;;21.89;50.64;99444.59;10169310;28;892;-73
2023/06/19 10:15:17;;;;;;;;;;;22.60;55.50;;;21.99;50.52;99451.00;10169047;28;1974;-73
2023/06/19 10:20:13;;;;;;;;;;;22.60;55.40;;;22.01;50.45;99433.19;10169539;28;849;-73
2023/06/19 10:25:09;;;;;;;;;;;22.60;55.40;;;21.96;50.49;99445.06;10168317;28;897;-73
2023/06/19 10:30:04;;;;;;;;;;;22.70;55.50;;;21.99;50.71;99443.06;10168677;28;884;-74
2023/06/19 10:35:00;;;;;;;;;;;22.70;55.60;;;21.96;50.55;99440.59;10234783;28;1991;-75
2023/06/19 10:39:55;;;;;;;;;;;22.60;55.50;;;21.95;50.56;99449.50;10248287;28;973;-74
2023/06/19 10:44:50;;;;;;;;;;;22.60;55.40;;;22.01;50.63;99438.50;10248258;28;888;-75
2023/06/19 10:49:46;;;;;;;;;;;22.70;55.50;;;22.01;50.64;99443.81;10247716;28;822;-75
2023/06/19 10:54:41;;;;;;;;;;;22.70;55.50;;;21.92;50.72;99441.75;10247818;28;1906;-74
2023/06/19 10:59:39;;;;;;;;;;;22.70;55.50;;;21.83;50.65;99434.41;10246989;28;921;-76
2023/06/19 11:04:34;;;;;;;;;;;22.60;55.50;;;21.80;50.78;99439.91;10247314;28;806;-75
2023/06/19 11:09:30;;;;;;;;;;;22.60;55.50;;;21.78;51.00;99428.53;10247161;28;806;-76
2023/06/19 11:14:25;;;;;;;;;;;22.60;55.40;;;21.75;50.81;99424.28;10247170;28;1906;-75
2023/06/19 11:19:21;;;;;;;;;;;22.60;55.50;;;21.75;50.95;99426.94;10247405;28;865;-74
2023/06/19 11:24:16;;;;;;;;;;;22.60;55.50;;;21.75;51.04;99426.09;10246939;28;891;-73
2023/06/19 11:29:12;;;;;;;;;;;22.60;55.40;;;21.73;50.98;99433.28;10247053;28;947;-75
2023/06/19 11:34:07;;;;;;;;;;;22.60;55.50;;;21.74;50.98;99424.38;10245711;28;1910;-74
2023/06/19 11:39:05;;;;;;;;;;;22.60;55.40;;;21.73;50.97;99417.38;10246360;28;954;-75
2023/06/19 11:44:00;;;;;;;;;;;22.60;55.50;;;21.72;50.92;99411.22;10246443;28;841;-73
2023/06/19 11:48:56;;;;;;;;;;;22.50;55.40;;;21.72;50.89;99418.31;10245734;28;759;-73
2023/06/19 11:53:52;;;;;;;;;;;22.50;55.40;;;21.71;50.88;99416.63;10246023;28;1906;-71
2023/06/19 11:58:48;;;;;;;;;;;22.50;55.40;;;21.71;50.85;99413.97;10246082;28;1595;-74
2023/06/19 12:03:43;;;;;;;;;;;22.50;55.40;;;21.69;51.03;99408.75;10245694;28;1102;-74
2023/06/19 12:13:39;;;;;;;;;;;22.50;55.40;;;21.70;51.01;99417.56;10245373;28;1910;-75
2023/06/19 12:18:34;;;;;;;;;;;22.50;55.40;;;21.70;50.98;99417.56;10244765;28;954;-74
2023/06/19 12:23:30;;;;;;;;;;;22.50;55.40;;;21.70;50.90;99412.28;10245120;28;848;-74
2023/06/19 12:28:25;;;;;;;;;;;22.50;55.40;;;21.70;50.83;99406.97;10244401;28;762;-75
2023/06/19 12:33:20;;;;;;;;;;;22.50;55.40;;;21.70;50.92;99415.78;10244434;28;1914;-76
2023/06/19 12:38:17;;;;;;;;;;;22.50;55.40;;;21.70;50.79;99412.28;10244708;28;849;-76
2023/06/19 12:43:13;;;;;;;;;;;22.50;55.40;;;21.70;50.87;99414.94;10244001;28;880;-75
2023/06/19 12:48:08;;;;;;;;;;;22.50;55.50;;;21.70;50.96;99417.56;10244493;28;872;-75
2023/06/19 12:53:04;;;;;;;;;;;22.50;55.40;;;21.69;50.84;99423.81;10243159;28;1918;-75
2023/06/19 12:57:59;;;;;;;;;;;22.50;55.40;;;21.70;50.84;99409.63;10243044;28;942;-75
2023/06/19 13:02:54;;;;;;;;;;;22.50;55.40;;;21.70;50.97;99418.44;10244630;28;936;-75
2023/06/19 13:07:50;;;;;;;;;;;22.50;55.40;;;21.69;50.88;99419.34;10243340;28;776;-74
2023/06/19 13:12:45;;;;;;;;;;;22.50;55.40;;;21.71;50.96;99413.97;10243199;28;1913;-68
2023/06/19 13:17:41;;;;;;;;;;;22.50;55.40;;;21.70;50.88;99407.81;10243953;28;808;-69
2023/06/19 13:22:36;;;;;;;;;;;22.50;55.50;;;21.69;51.38;99416.69;10243907;28;852;-69
2023/06/19 13:27:32;;;;;;;;;;;22.50;55.80;;;21.71;51.90;99413.97;10243046;28;782;-69
2023/06/19 13:32:27;;;;;;;;;;;22.50;56.30;;;21.72;52.21;99410.34;10243798;28;1910;-69
2023/06/19 13:37:23;;;;;;;;;;;22.50;57.20;;;21.72;52.11;99403.28;10242507;28;959;-69
2023/06/19 13:42:18;;;;;;;;;;;22.50;56.30;;;21.72;52.16;99413.00;10243137;28;867;-69
2023/06/19 13:47:14;;;;;;;;;;;22.50;56.30;;;21.72;52.10;99397.09;10242762;28;841;-69
2023/06/19 13:52:09;;;;;;;;;;;22.50;56.50;;;21.72;52.27;99397.09;10242489;28;1910;-69
2023/06/19 13:57:04;;;;;;;;;;;22.50;56.70;;;21.72;52.23;99387.34;10244485;28;947;-69
2023/06/19 14:02:00;;;;;;;;;;;22.50;56.70;;;21.73;52.22;99386.38;10250709;28;835;-69
2023/06/19 14:06:55;;;;;;;;;;;22.50;56.50;;;21.74;52.21;99376.63;10249940;28;891;-68
2023/06/19 14:11:51;;;;;;;;;;;22.50;56.40;;;21.74;52.32;99380.13;10246791;28;1118;-69
2023/06/19 14:16:46;;;;;;;;;;;22.50;56.40;;;21.74;52.21;99382.78;10248151;28;1969;-69
2023/06/19 14:21:41;;;;;;;;;;;22.50;56.50;;;21.74;52.45;99377.47;10249141;28;873;-69
2023/06/19 14:26:37;;;;;;;;;;;22.50;56.50;;;21.75;52.29;99386.31;10249061;28;865;-69
2023/06/19 14:31:32;;;;;;;;;;;22.50;56.60;;;21.76;52.46;99383.53;10248395;28;1359;-69
2023/06/19 14:36:28;;;;;;;;;;;22.50;56.60;;;21.77;52.43;99381.72;10248174;28;1902;-69
2023/06/19 14:41:23;;;;;;;;;;;22.50;56.50;;;21.79;52.40;99385.13;10248069;28;802;-69
2023/06/19 14:46:19;;;;;;;;;;;22.60;56.60;;;21.79;52.29;99385.97;10248497;28;841;-69
2023/06/19 14:51:14;;;;;;;;;;;22.50;56.60;;;21.80;52.09;99382.38;10247714;28;892;-69
2023/06/19 14:56:10;;;;;;;;;;;22.50;56.50;;;21.81;52.22;99372.63;10246833;28;1906;-70
2023/06/19 15:01:05;;;;;;;;;;;22.60;56.60;;;21.81;52.11;99373.47;10247314;28;972;-69
2023/06/19 15:06:01;;;;;;;;;;;22.50;56.50;;;21.84;52.08;99383.03;10247193;28;794;-69
2023/06/19 15:10:57;;;;;;;;;;;22.60;56.60;;;21.84;52.12;99381.22;10247466;28;858;-69
2023/06/19 15:15:52;;;;;;;;;;;22.60;56.60;;;21.86;52.15;99375.81;10246722;28;1965;-69
2023/06/19 15:20:48;;;;;;;;;;;22.60;56.60;;;21.86;52.13;99375.81;10247118;28;803;-69
2023/06/19 15:25:43;;;;;;;;;;;22.60;56.60;;;21.87;52.21;99374.84;10246337;28;760;-70
2023/06/19 15:30:39;;;;;;;;;;;22.60;56.60;;;21.88;52.34;99368.63;10246309;28;867;-69
2023/06/19 15:35:34;;;;;;;;;;;22.60;56.60;;;21.89;52.25;99370.31;10245805;28;1907;-69
2023/06/19 15:40:29;;;;;;;;;;;22.60;56.50;;;21.89;52.22;99359.69;10246109;28;810;-71
2023/06/19 15:45:25;;;;;;;;;;;22.60;56.60;;;21.91;52.36;99356.94;10245996;28;859;-71
2023/06/19 15:50:20;;;;;;;;;;;22.60;56.50;;;21.91;52.22;99346.34;10246247;28;873;-70
2023/06/19 15:55:16;;;;;;;;;;;22.60;56.50;;;21.91;52.43;99341.88;10246040;28;1906;-68
2023/06/19 16:00:12;;;;;;;;;;;22.60;56.70;;;21.93;52.31;99347.06;10245359;28;952;-69
2023/06/19 16:05:08;;;;;;;;;;;22.60;56.60;;;21.93;52.44;99339.97;10245051;28;884;-68
2023/06/19 16:10:03;;;;;;;;;;;22.60;56.60;;;21.93;52.31;99345.28;10245641;28;865;-69
2023/06/19 16:14:59;;;;;;;;;;;22.60;56.70;;;21.94;52.33;99335.50;10244796;28;2029;-69
2023/06/19 16:19:54;;;;;;;;;;;22.70;56.70;;;21.95;52.42;99340.69;10244779;28;841;-68
2023/06/19 16:24:50;;;;;;;;;;;22.60;56.60;;;21.95;52.39;99340.69;10243971;28;944;-68
2023/06/19 16:29:45;;;;;;;;;;;22.70;56.70;;;21.97;52.21;99343.25;10244392;28;830;-67
2023/06/19 16:34:40;;;;;;;;;;;22.70;56.70;;;21.97;52.25;99336.16;10243940;28;1914;-69
2023/06/19 16:39:36;;;;;;;;;;;22.70;56.70;;;22.00;52.15;99345.69;10244895;28;830;-69
2023/06/19 16:44:31;;;;;;;;;;;22.70;56.70;;;21.99;52.14;99342.22;10244700;28;863;-69
2023/06/19 16:49:27;;;;;;;;;;;22.70;56.20;;;22.00;52.31;99341.25;10244620;28;887;-69
2023/06/19 16:54:22;;;;;;;;;;;22.70;56.70;;;22.01;52.19;99344.78;10244646;28;1906;-69
2023/06/19 16:59:17;;;;;;;;;;;22.70;56.70;;;22.01;52.11;99345.63;10243853;28;826;-69
2023/06/19 17:04:13;;;;;;;;;;;22.70;56.70;;;22.02;52.20;99344.66;10244549;28;817;-69
2023/06/19 17:09:08;;;;;;;;;;;22.70;56.70;;;22.02;52.29;99343.81;10243626;28;899;-69
2023/06/19 17:14:04;;;;;;;;;;;22.70;56.70;;;22.03;52.33;99334.88;10243456;28;1905;-69
2023/06/19 17:18:59;;;;;;;;;;;22.70;56.70;;;22.02;52.21;99341.16;10243492;28;806;-69
2023/06/19 17:23:55;;;;;;;;;;;22.80;56.80;;;22.02;52.23;99344.66;10243472;28;891;-69
2023/06/19 17:28:50;;;;;;;;;;;22.70;56.70;;;22.03;52.48;99345.50;10243304;28;817;-69
2023/06/19 17:33:46;;;;;;;;;;;22.70;56.70;;;22.03;52.37;99349.03;10248091;28;1906;-70
2023/06/19 17:38:41;;;;;;;;;;;22.80;56.80;;;22.04;52.25;99356.03;10251337;28;709;-71
2023/06/19 17:43:36;;;;;;;;;;;22.80;56.80;;;22.04;52.54;99361.31;10251284;28;866;-71
2023/06/19 17:48:32;;;;;;;;;;;22.80;56.80;;;22.04;52.40;99363.13;10249827;28;846;-71
2023/06/19 17:53:27;;;;;;;;;;;22.80;56.80;;;22.04;52.55;99363.13;10250334;28;1906;-71
2023/06/19 17:58:23;;;;;;;;;;;22.80;56.90;;;22.03;52.40;99356.09;10250035;28;781;-71
2023/06/19 18:03:18;;;;;;;;;;;22.80;56.80;;;22.03;52.52;99350.81;10250476;28;1054;-71
2023/06/19 18:08:14;;;;;;;;;;;22.80;56.90;;;22.06;52.60;99363.84;10250269;28;894;-74
2023/06/19 18:13:09;;;;;;;;;;;22.80;56.80;;;22.09;52.24;99359.22;10249355;28;1906;-75
2023/06/19 18:18:05;;;;;;;;;;;22.80;56.80;;;22.10;52.35;99363.56;10249281;28;898;-75
2023/06/19 18:23:00;;;;;;;;;;;22.80;56.70;;;22.12;52.18;99362.63;10249129;28;947;-71
2023/06/19 18:27:55;;;;;;;;;;;22.90;56.70;;;22.12;52.01;99359.97;10248891;28;851;-75
2023/06/19 18:32:51;;;;;;;;;;;22.90;56.70;;;22.12;51.87;99355.50;10248350;28;1981;-74
2023/06/19 18:37:46;;;;;;;;;;;22.90;56.70;;;22.14;51.83;99358.03;10249106;28;822;-74
2023/06/19 18:42:42;;;;;;;;;;;22.90;56.70;;;22.13;51.96;99354.53;10247926;28;829;-74
2023/06/19 18:47:37;;;;;;;;;;;22.90;56.60;;;22.14;52.00;99358.03;10248788;28;934;-74
2023/06/19 18:52:33;;;;;;;;;;;22.90;56.60;;;22.14;51.73;99360.69;10248049;28;1906;-74
2023/06/19 18:57:29;;;;;;;;;;;22.90;56.60;;;22.15;51.64;99368.56;10248646;28;855;-75
2023/06/19 19:02:25;;;;;;;;;;;22.90;56.50;;;22.15;51.62;99368.56;10247607;28;888;-74
2023/06/19 19:07:22;;;;;;;;;;;23.00;56.60;;;22.16;51.69;99366.75;10247524;28;967;-74
2023/06/19 19:12:17;;;;;;;;;;;22.90;56.50;;;22.16;51.60;99367.59;10247150;28;1969;-74
2023/06/19 19:17:13;;;;;;;;;;;22.90;56.40;;;22.16;51.65;99367.59;10247609;28;864;-74
2023/06/19 19:22:08;;;;;;;;;;;22.90;56.40;;;22.16;51.81;99375.56;10247460;28;763;-75
2023/06/19 19:27:04;;;;;;;;;;;22.90;56.40;;;22.17;51.71;99374.63;10246663;28;794;-74
2023/06/19 19:31:59;;;;;;;;;;;22.90;56.40;;;22.18;51.72;99375.47;10246593;28;1371;-74
2023/06/19 19:36:55;;;;;;;;;;;23.00;56.40;;;22.19;51.67;99377.19;10246843;28;1906;-74
2023/06/19 19:41:50;;;;;;;;;;;23.00;56.40;;;22.18;51.44;99384.28;10246149;28;838;-75
2023/06/19 19:46:45;;;;;;;;;;;23.00;56.30;;;22.19;51.66;99385.16;10245289;28;888;-75
2023/06/19 19:51:41;;;;;;;;;;;23.00;56.30;;;22.19;51.60;99382.50;10246235;28;786;-75
2023/06/19 19:56:38;;;;;;;;;;;23.00;56.30;;;22.19;51.58;99382.50;10244811;28;1894;-74
2023/06/19 20:01:34;;;;;;;;;;;23.00;56.20;;;22.20;51.57;99382.41;10245986;28;825;-74
2023/06/19 20:06:30;;;;;;;;;;;23.00;56.10;;;22.21;51.47;99402.69;10245416;28;806;-74
2023/06/19 20:11:26;;;;;;;;;;;23.10;56.20;;;22.21;51.57;99402.69;10245051;28;918;-74
2023/06/19 20:16:21;;;;;;;;;;;23.00;56.20;;;22.21;51.27;99420.41;10244800;28;1902;-74
2023/06/19 20:21:17;;;;;;;;;;;23.00;56.10;;;22.21;51.44;99410.66;10244725;28;839;-74
2023/06/19 20:26:13;;;;;;;;;;;23.10;56.10;;;22.22;51.38;99414.19;10244035;28;896;-75
2023/06/19 20:31:09;;;;;;;;;;;23.10;56.10;;;22.23;51.23;99410.56;10244160;28;1204;-74
2023/06/19 20:36:04;;;;;;;;;;;23.10;56.00;;;22.23;51.37;99413.22;10244527;28;1910;-74
2023/06/19 20:41:01;;;;;;;;;;;23.10;56.00;;;22.23;51.24;99408.75;10244754;28;867;-74
2023/06/19 20:46:00;;;;;;;;;;;23.10;56.00;;;22.23;51.31;99413.22;10244115;28;978;-74
2023/06/19 20:50:57;;;;;;;;;;;23.10;56.00;;;22.23;51.37;99414.06;10244020;28;844;-74
2023/06/19 20:55:52;;;;;;;;;;;23.10;56.00;;;22.24;51.16;99417.56;10244091;28;1977;-75
2023/06/19 21:00:47;;;;;;;;;;;23.10;55.90;;;22.25;51.18;99419.28;10243791;28;1026;-74
2023/06/19 21:05:43;;;;;;;;;;;23.10;55.90;;;22.24;51.37;99413.13;10245574;28;826;-74
2023/06/19 21:10:41;;;;;;;;;;;23.10;55.90;;;22.26;51.28;99418.31;10251854;28;988;-74
2023/06/19 21:15:36;;;;;;;;;;;23.10;55.90;;;22.25;51.10;99404.19;10251622;28;1955;-74
2023/06/19 21:20:32;;;;;;;;;;;23.10;55.90;;;22.25;51.18;99408.66;10251485;28;829;-74
2023/06/19 21:25:27;;;;;;;;;;;23.10;55.90;;;22.27;51.24;99407.59;10250742;28;841;-74
2023/06/19 21:30:23;;;;;;;;;;;23.10;55.80;;;22.26;51.33;99410.34;10251234;28;882;-74
2023/06/19 21:35:18;;;;;;;;;;;23.10;55.80;;;22.27;51.19;99412.06;10250940;28;1906;-74
2023/06/19 21:40:14;;;;;;;;;;;23.10;55.80;;;22.27;51.17;99409.41;10250830;28;783;-74
2023/06/19 21:45:09;;;;;;;;;;;23.10;55.80;;;22.27;51.19;99401.44;10251643;28;803;-74
2023/06/19 21:50:04;;;;;;;;;;;23.10;55.80;;;22.28;51.24;99403.13;10250231;28;873;-74
2023/06/19 21:55:00;;;;;;;;;;;23.20;55.80;;;22.28;51.07;99395.16;10250041;28;1914;-74
2023/06/19 21:59:55;;;;;;;;;;;23.20;55.80;;;22.27;51.03;99389.00;10250401;28;751;-74
2023/06/19 22:04:50;;;;;;;;;;;23.10;55.70;;;22.28;51.02;99379.25;10249993;28;786;-74
2023/06/19 22:09:46;;;;;;;;;;;23.20;55.80;;;22.29;51.29;99370.31;10249596;28;929;-75
2023/06/19 22:14:41;;;;;;;;;;;23.10;55.70;;;22.28;51.25;99368.63;10249426;28;1910;-74
2023/06/19 22:19:38;;;;;;;;;;;23.20;55.80;;;22.29;51.14;99367.66;10248441;28;961;-74
2023/06/19 22:24:36;;;;;;;;;;;23.20;55.80;;;22.28;51.20;99361.50;10249047;28;982;-74
2023/06/19 22:29:31;;;;;;;;;;;23.20;55.70;;;22.29;51.15;99365.00;10248857;28;908;-74
2023/06/19 22:34:27;;;;;;;;;;;23.20;55.80;;;22.29;51.05;99367.66;10248875;28;1906;-74
2023/06/19 22:39:22;;;;;;;;;;;23.20;55.70;;;22.29;51.14;99378.28;10248802;28;895;-74
2023/06/19 22:44:17;;;;;;;;;;;23.20;55.70;;;22.29;50.99;99378.28;10249022;28;965;-76
2023/06/19 22:49:13;;;;;;;;;;;23.20;55.70;;;22.30;51.12;99380.00;10248201;28;920;-74
2023/06/19 22:54:08;;;;;;;;;;;23.20;55.70;;;22.30;51.20;99380.00;10248545;28;1971;-74
2023/06/19 22:59:04;;;;;;;;;;;23.20;55.70;;;22.29;51.00;99373.81;10248530;28;850;-75
2023/06/19 23:03:59;;;;;;;;;;;23.20;55.70;;;22.29;51.12;99362.34;10248241;28;799;-74
2023/06/19 23:08:55;;;;;;;;;;;23.20;55.70;;;22.30;50.92;99369.38;10247401;28;891;-74
2023/06/19 23:13:50;;;;;;;;;;;23.20;55.70;;;22.30;50.94;99374.69;10247412;28;1981;-74
2023/06/19 23:18:45;;;;;;;;;;;23.20;55.70;;;22.29;50.91;99371.16;10247101;28;819;-74